KHOU/HOU METAR and TAF weather

Enter ICAO airport designator
Station Type Date Time Source
KHOU METAR 2020/11/28 18:53 UTC NOAA

KHOU 281853Z 07007KT 7SM -RA BKN010 BKN020 OVC034 19/17 A3007 RMK AO2 SLP186 P0003 T01890172


Station Type Date Time Source
KHOU Decoded METAR 2020/11/28 18:53 UTC NOAA

HOUSTON HOBBY AIRPORT, TX, United States (KHOU) 29-38N 095-17W 36M
Nov 28, 2020 - 01:53 PM EST / 2020.11.28 1853 UTC
Wind: from the ENE (070 degrees) at 8 MPH (7 KT):0
Visibility: 7 mile(s):0
Sky conditions: overcast
Weather: light rain
Precipitation last hour: 0.03 inches
Temperature: 66.0 F (18.9 C)
Dew Point: 63.0 F (17.2 C)
Relative Humidity: 89%
Pressure (altimeter): 30.07 in. Hg (1018 hPa)
ob: KHOU 281853Z 07007KT 7SM -RA BKN010 BKN020 OVC034 19/17 A3007 RMK AO2 SLP186 P0003 T01890172
cycle: 19

Station Type Date Time Source
KHOU TAF 2020/11/28 18:27 UTC NOAA

TAF KHOU 281725Z 2818/2918 07012KT 6SM -SHRA OVC010
FM290000 07010KT 5SM SHRA BR OVC013
FM290700 04008KT 3SM SHRA BR VCTS OVC006CB
FM291100 34010KT 2SM SHRA VCTS OVC006CB
FM291400 33012G20KT 6SM BR OVC010

Example: see airport list